Time;durP1;ratioP1;P1;durP2;ratioP2;P2;SDS_P1;SDS_P2;PMS_P1;PMS_P2;Temp;Humidity;BMP_temperature;BMP_pressure;BME280_temperature;BME280_humidity;BME280_pressure;Samples;Min_cycle;Max_cycle;Signal;HPM_P1;HPM_P2
2023/01/06 00:01:34;;;;;;;12.00;8.70;;;;;;;10.48;88.63;99607.72;5091699;28;20561;-59
2023/01/06 00:04:02;;;;;;;10.50;8.60;;;;;;;10.49;88.18;99599.03;5091111;28;20298;-59
2023/01/06 00:06:30;;;;;;;11.33;9.67;;;;;;;10.52;88.09;99615.34;5091409;28;20191;-59
2023/01/06 00:08:59;;;;;;;10.80;9.47;;;;;;;10.52;87.92;99614.50;5091100;28;20222;-60
2023/01/06 00:11:26;;;;;;;10.43;9.30;;;;;;;10.51;87.73;99630.97;5091355;28;20192;-59
2023/01/06 00:13:55;;;;;;;10.33;8.50;;;;;;;10.55;87.34;99623.06;5091391;28;20199;-60
2023/01/06 00:16:24;;;;;;;9.93;8.80;;;;;;;10.62;86.87;99625.50;5091220;28;20227;-59
2023/01/06 00:18:54;;;;;;;10.70;9.37;;;;;;;10.40;87.09;99601.84;5091041;28;20195;-51
2023/01/06 00:21:21;;;;;;;11.13;8.77;;;;;;;10.51;86.88;99633.56;5091189;28;20201;-54
2023/01/06 00:23:48;;;;;;;10.57;9.43;;;;;;;10.55;86.45;99640.38;5090938;28;20203;-59
2023/01/06 00:26:15;;;;;;;15.37;9.87;;;;;;;10.53;86.04;99631.78;5091217;28;20199;-59
2023/01/06 00:28:42;;;;;;;11.60;9.47;;;;;;;10.51;86.35;99638.75;5090634;28;20199;-59
2023/01/06 00:31:11;;;;;;;12.60;9.60;;;;;;;10.49;86.11;99636.22;5090668;28;20195;-59
2023/01/06 00:33:39;;;;;;;10.67;9.57;;;;;;;10.49;85.89;99643.16;5090869;28;20192;-50
2023/01/06 00:36:08;;;;;;;11.10;9.73;;;;;;;10.50;86.21;99642.25;5090365;28;20237;-50
2023/01/06 00:38:36;;;;;;;10.97;9.33;;;;;;;10.43;86.19;99646.75;5090695;28;20267;-50
2023/01/06 00:42:02;;;;;;;10.50;9.40;;;;;;;10.35;86.14;99632.28;5090063;28;20288;-50
2023/01/06 00:43:51;;;;;;;11.20;9.60;;;;;;;10.41;86.36;99655.47;5090140;28;20195;-58
2023/01/06 00:46:18;;;;;;;10.27;8.97;;;;;;;10.42;86.37;99657.16;5091148;28;20662;-60
2023/01/06 00:48:46;;;;;;;15.60;10.03;;;;;;;10.41;86.29;99658.06;5090958;28;20579;-58
2023/01/06 00:51:13;;;;;;;14.33;9.70;;;;;;;10.34;86.24;99667.75;5090458;28;20207;-60
2023/01/06 00:53:40;;;;;;;15.33;9.20;;;;;;;10.32;86.73;99663.50;5090634;28;20587;-59
2023/01/06 00:56:07;;;;;;;11.27;8.83;;;;;;;10.27;86.59;99668.78;5090171;28;20621;-58
2023/01/06 00:58:35;;;;;;;9.47;8.47;;;;;;;10.30;86.64;99671.31;5090575;28;20195;-59
2023/01/06 01:01:04;;;;;;;12.03;9.03;;;;;;;10.26;86.69;99682.66;5090529;28;20556;-57
2023/01/06 01:03:31;;;;;;;11.57;8.90;;;;;;;10.21;87.09;99679.31;5090397;28;20191;-59
2023/01/06 01:06:01;;;;;;;12.33;8.53;;;;;;;10.18;87.12;99680.25;5090723;28;20217;-59
2023/01/06 01:08:28;;;;;;;9.60;8.60;;;;;;;10.15;87.38;99688.09;5090399;28;20201;-59
2023/01/06 01:10:55;;;;;;;9.57;8.40;;;;;;;10.11;87.65;99678.66;5090455;28;20591;-59
2023/01/06 01:13:22;;;;;;;9.70;7.90;;;;;;;10.02;86.84;99645.19;5090588;28;20195;-59
2023/01/06 01:15:50;;;;;;;8.80;7.93;;;;;;;10.12;87.01;99682.13;5090574;28;20229;-60
2023/01/06 01:18:16;;;;;;;9.17;7.53;;;;;;;10.10;87.30;99671.78;5090218;28;20205;-59
2023/01/06 01:20:45;;;;;;;12.60;7.93;;;;;;;10.11;87.28;99681.25;5090110;28;20191;-59
2023/01/06 01:23:14;;;;;;;9.13;7.90;;;;;;;10.02;87.39;99672.84;5089760;28;20191;-59
2023/01/06 01:25:41;;;;;;;8.67;7.80;;;;;;;9.96;87.49;99679.03;5090021;28;20213;-60
2023/01/06 01:28:08;;;;;;;9.80;8.03;;;;;;;9.94;87.78;99673.00;5089800;28;20201;-60
2023/01/06 01:30:35;;;;;;;10.17;8.33;;;;;;;10.04;87.81;99674.53;5089928;28;20198;-60
2023/01/06 01:33:01;;;;;;;8.23;7.50;;;;;;;10.16;86.90;99671.59;5090053;28;20216;-59
2023/01/06 01:35:28;;;;;;;11.80;8.20;;;;;;;10.20;87.18;99688.00;5090150;28;20195;-50
2023/01/06 01:37:55;;;;;;;8.87;7.97;;;;;;;10.27;86.62;99683.53;5089794;28;20710;-59
2023/01/06 01:40:23;;;;;;;9.20;7.83;;;;;;;10.34;86.32;99685.06;5090035;28;20231;-50
2023/01/06 01:42:50;;;;;;;8.80;7.53;;;;;;;10.38;86.00;99678.91;5089726;28;20214;-59
2023/01/06 01:45:23;;;;;;;17.63;10.20;;;;;;;10.34;86.27;99670.34;5090208;28;20222;-59
2023/01/06 01:47:52;;;;;;;11.10;8.77;;;;;;;10.43;85.83;99669.25;5090996;28;20203;-58
2023/01/06 01:50:26;;;;;;;14.57;10.93;;;;;;;10.43;85.86;99662.31;5093716;28;20285;-59
2023/01/06 01:52:57;;;;;;;14.03;8.43;;;;;;;10.51;86.02;99667.31;5093675;28;20201;-59
2023/01/06 01:55:28;;;;;;;8.70;7.40;;;;;;;10.59;85.87;99662.78;5094053;28;20202;-59
2023/01/06 01:58:02;;;;;;;9.63;7.53;;;;;;;10.59;86.03;99652.41;5093685;28;20229;-51
2023/01/06 02:00:29;;;;;;;7.90;7.10;;;;;;;10.59;86.35;99649.81;5094154;28;20195;-52
2023/01/06 02:02:56;;;;;;;7.53;6.73;;;;;;;10.60;86.47;99643.72;5093920;28;20564;-51
2023/01/06 02:05:25;;;;;;;7.63;6.83;;;;;;;10.66;86.68;99663.47;5093739;28;20201;-50
2023/01/06 02:07:53;;;;;;;26.47;8.77;;;;;;;10.69;87.21;99653.84;5093749;28;20613;-60
2023/01/06 02:10:22;;;;;;;24.53;8.63;;;;;;;10.68;87.35;99639.16;5093619;28;20195;-60
2023/01/06 02:12:54;;;;;;;14.93;7.27;;;;;;;10.79;88.22;99650.13;5093551;28;20282;-60
2023/01/06 02:15:24;;;;;;;8.10;6.53;;;;;;;10.95;88.57;99654.91;5093624;28;20206;-59
2023/01/06 02:18:21;;;;;;;9.43;7.00;;;;;;;10.96;88.85;99643.59;5093699;28;20610;-59
2023/01/06 02:21:10;;;;;;;9.13;7.00;;;;;;;10.97;88.81;99653.06;5092388;28;20610;-60
2023/01/06 02:23:56;;;;;;;9.93;6.57;;;;;;;11.08;88.86;99653.63;5093412;28;20210;-59
2023/01/06 02:26:54;;;;;;;8.07;6.93;;;;;;;11.17;88.46;99655.97;5093382;28;20195;-59
2023/01/06 02:29:58;;;;;;;11.87;6.97;;;;;;;11.14;88.42;99638.72;5093443;28;20191;-59
2023/01/06 02:32:44;;;;;;;9.10;6.93;;;;;;;10.99;88.98;99620.97;5093186;28;20205;-59
2023/01/06 02:35:28;;;;;;;28.57;7.20;;;;;;;11.06;88.18;99626.88;5093290;28;20204;-51
2023/01/06 02:38:07;;;;;;;7.70;6.30;;;;;;;11.12;87.87;99611.94;5092919;28;20610;-51
2023/01/06 02:40:59;;;;;;;7.77;6.67;;;;;;;11.11;87.50;99599.84;5092554;28;20227;-52
2023/01/06 02:43:32;;;;;;;10.63;6.57;;;;;;;11.19;87.21;99610.00;5091804;28;20252;-52
2023/01/06 02:46:12;;;;;;;7.70;6.27;;;;;;;11.26;86.09;99616.72;5091722;28;20203;-59
2023/01/06 02:48:51;;;;;;;6.80;6.10;;;;;;;11.36;85.58;99623.34;5091646;28;20222;-58
2023/01/06 02:51:24;;;;;;;6.70;5.90;;;;;;;11.44;85.13;99621.38;5091643;28;20199;-58
2023/01/06 02:54:03;;;;;;;7.30;5.77;;;;;;;11.43;84.91;99611.00;5091873;28;20576;-59
2023/01/06 02:56:34;;;;;;;8.43;6.13;;;;;;;11.48;84.65;99609.97;5091179;28;20191;-58
2023/01/06 02:59:06;;;;;;;6.47;5.87;;;;;;;11.32;85.20;99589.69;5090602;28;20195;-51
2023/01/06 03:01:39;;;;;;;8.67;5.60;;;;;;;11.47;84.83;99595.28;5091531;28;20192;-50
2023/01/06 03:04:11;;;;;;;7.10;5.23;;;;;;;11.48;84.92;99599.59;5091395;28;20222;-51
2023/01/06 03:06:43;;;;;;;6.47;5.87;;;;;;;11.51;84.57;99607.28;5091081;28;20210;-59
2023/01/06 03:09:12;;;;;;;6.37;5.33;;;;;;;11.58;84.00;99598.41;5091385;28;20191;-60
2023/01/06 03:11:41;;;;;;;7.00;5.17;;;;;;;11.59;84.11;99581.91;5091232;28;20200;-59
2023/01/06 03:14:15;;;;;;;7.77;5.70;;;;;;;11.63;84.10;99572.22;5091280;28;20214;-60
2023/01/06 03:16:42;;;;;;;5.47;4.97;;;;;;;11.58;84.13;99569.81;5091237;28;20195;-51
2023/01/06 03:19:10;;;;;;;6.43;5.73;;;;;;;11.57;84.24;99557.69;5091228;28;20203;-59
2023/01/06 03:21:42;;;;;;;7.73;5.37;;;;;;;11.49;84.00;99549.31;5091434;28;20697;-59
2023/01/06 03:24:10;;;;;;;7.23;5.50;;;;;;;11.67;83.19;99562.59;5091041;28;20580;-59
2023/01/06 03:26:39;;;;;;;13.97;6.33;;;;;;;11.69;83.28;99572.06;5091248;28;20290;-58
2023/01/06 03:29:09;;;;;;;5.70;5.20;;;;;;;11.67;82.95;99579.06;5091396;28;20679;-59
2023/01/06 03:31:47;;;;;;;6.90;5.60;;;;;;;11.71;82.73;99574.63;5091209;28;20687;-59
2023/01/06 03:34:26;;;;;;;15.17;5.27;;;;;;;11.63;82.58;99573.09;5090979;28;20199;-59
2023/01/06 03:37:02;;;;;;;5.93;5.13;;;;;;;11.61;82.58;99561.06;5091183;28;20195;-59
2023/01/06 03:45:31;;;;;;;11.90;4.97;;;;;;;11.69;81.98;99571.22;5148996;27;20583;-59
2023/01/06 03:48:07;;;;;;;5.97;5.20;;;;;;;11.61;82.32;99554.13;5149039;27;20193;-59
2023/01/06 03:50:39;;;;;;;5.23;4.73;;;;;;;11.68;82.48;99564.31;5149030;27;20193;-59
2023/01/06 03:53:17;;;;;;;10.10;5.30;;;;;;;11.67;82.67;99553.06;5148733;27;20579;-50
2023/01/06 03:55:48;;;;;;;14.87;5.30;;;;;;;11.66;82.93;99572.16;5148666;27;20676;-50
2023/01/06 03:58:19;;;;;;;7.53;5.60;;;;;;;11.59;82.68;99568.91;5148614;27;20193;-51
2023/01/06 04:00:48;;;;;;;10.30;5.60;;;;;;;11.54;82.96;99560.38;5148188;27;20221;-51
2023/01/06 04:03:16;;;;;;;6.27;5.23;;;;;;;11.54;83.39;99588.97;5148422;27;20653;-50
2023/01/06 04:05:43;;;;;;;25.60;5.90;;;;;;;11.48;83.63;99590.94;5148294;27;20200;-58
2023/01/06 04:08:10;;;;;;;8.73;5.50;;;;;;;11.40;84.06;99596.34;5148631;27;20215;-59
2023/01/06 04:10:36;;;;;;;10.60;6.03;;;;;;;11.35;84.75;99606.06;5148653;27;20196;-59
2023/01/06 04:13:02;;;;;;;11.17;5.83;;;;;;;11.34;85.38;99619.94;5148170;27;20197;-59
2023/01/06 04:15:31;;;;;;;8.67;6.00;;;;;;;11.33;86.11;99620.84;5148299;27;20207;-52
2023/01/06 04:17:58;;;;;;;5.60;4.87;;;;;;;11.24;87.49;99615.94;5148032;27;20247;-51
2023/01/06 04:20:27;;;;;;;9.70;5.20;;;;;;;11.22;88.08;99621.16;5147965;27;20654;-50
2023/01/06 04:22:54;;;;;;;5.27;4.87;;;;;;;11.22;88.49;99617.72;5147788;27;20225;-51
2023/01/06 04:25:21;;;;;;;5.13;4.73;;;;;;;11.22;88.85;99615.97;5148165;27;20281;-51
2023/01/06 04:27:48;;;;;;;7.07;4.40;;;;;;;11.18;88.97;99613.50;5147941;27;20201;-51
2023/01/06 04:30:15;;;;;;;20.00;4.67;;;;;;;11.18;89.40;99613.50;5147620;27;20190;-50
2023/01/06 04:32:43;;;;;;;23.77;5.67;;;;;;;11.10;89.72;99623.25;5147938;27;20201;-51
2023/01/06 04:35:11;;;;;;;13.43;4.03;;;;;;;11.08;89.74;99625.91;5147928;27;20201;-50
2023/01/06 04:37:38;;;;;;;17.93;4.50;;;;;;;11.08;89.88;99635.44;5147675;27;20197;-49
2023/01/06 04:40:06;;;;;;;14.73;4.93;;;;;;;11.09;89.90;99631.94;5147154;27;20197;-52
2023/01/06 04:43:03;;;;;;;14.57;4.67;;;;;;;11.19;89.38;99641.16;5145961;27;20193;-51
2023/01/06 04:45:20;;;;;;;11.33;4.77;;;;;;;11.21;88.57;99654.97;5147206;27;20193;-50
2023/01/06 04:47:48;;;;;;;13.30;5.77;;;;;;;11.21;88.52;99639.38;5147266;27;20189;-50
2023/01/06 04:50:16;;;;;;;10.07;5.90;;;;;;;11.30;88.09;99667.69;5147057;27;20205;-58
2023/01/06 04:52:42;;;;;;;13.93;6.27;;;;;;;11.31;87.63;99648.63;5135881;27;20193;-58
2023/01/06 04:55:09;;;;;;;17.13;4.43;;;;;;;11.37;86.78;99669.25;5133242;27;20217;-58
2023/01/06 04:57:36;;;;;;;8.33;4.00;;;;;;;11.36;86.84;99667.53;5133649;27;20193;-59
2023/01/06 05:00:05;;;;;;;11.63;4.20;;;;;;;11.37;86.52;99670.97;5133511;27;20194;-51
2023/01/06 05:02:32;;;;;;;10.83;4.13;;;;;;;11.35;86.56;99681.41;5134041;27;20221;-51
2023/01/06 05:05:01;;;;;;;11.27;5.07;;;;;;;11.33;87.08;99691.00;5133362;27;20201;-50
2023/01/06 05:07:28;;;;;;;11.20;5.33;;;;;;;11.28;87.02;99679.91;5133654;27;20583;-53
2023/01/06 05:09:54;;;;;;;8.40;5.33;;;;;;;11.25;86.94;99680.84;5133469;27;20205;-52
2023/01/06 05:12:21;;;;;;;10.47;4.90;;;;;;;11.26;86.91;99703.34;5133485;27;20207;-59
2023/01/06 05:14:48;;;;;;;4.97;4.33;;;;;;;11.25;87.02;99691.22;5133536;27;20208;-52
2023/01/06 05:17:15;;;;;;;7.80;5.00;;;;;;;11.28;87.06;99693.75;5133677;27;20201;-51
2023/01/06 05:19:48;;;;;;;6.37;5.17;;;;;;;11.28;87.15;99695.50;5133462;27;20201;-54
2023/01/06 05:22:19;;;;;;;10.17;4.93;;;;;;;11.17;87.50;99697.56;5132782;27;20254;-51
2023/01/06 05:24:46;;;;;;;10.03;4.73;;;;;;;11.18;87.23;99696.63;5133443;27;20588;-51
2023/01/06 05:27:13;;;;;;;7.17;3.70;;;;;;;11.16;86.89;99707.09;5133612;27;20202;-52
2023/01/06 05:29:39;;;;;;;7.87;4.10;;;;;;;11.14;87.65;99706.28;5133008;27;20197;-51
2023/01/06 05:32:06;;;;;;;10.23;4.63;;;;;;;11.13;87.42;99722.75;5131981;27;20190;-51
2023/01/06 05:34:33;;;;;;;3.40;3.20;;;;;;;11.16;87.18;99721.81;5131784;27;20208;-52
2023/01/06 05:37:00;;;;;;;4.30;3.27;;;;;;;11.21;86.33;99730.31;5132688;27;20213;-59
2023/01/06 05:39:29;;;;;;;7.93;3.93;;;;;;;11.22;86.31;99737.22;5132266;27;20355;-59
2023/01/06 05:41:56;;;;;;;6.03;3.70;;;;;;;11.22;86.03;99751.06;5132360;27;20277;-59
2023/01/06 05:44:25;;;;;;;5.63;3.20;;;;;;;11.18;85.70;99740.78;5133151;27;20649;-60
2023/01/06 05:46:52;;;;;;;8.97;4.00;;;;;;;11.19;86.10;99769.34;5133045;27;20549;-60
2023/01/06 05:49:19;;;;;;;11.30;4.43;;;;;;;11.16;86.07;99782.44;5133322;27;20583;-62
2023/01/06 05:51:49;;;;;;;4.23;3.33;;;;;;;11.07;86.56;99787.00;5132926;27;20272;-61
2023/01/06 05:54:16;;;;;;;3.13;2.83;;;;;;;11.10;86.60;99794.72;5132292;27;20749;-51
2023/01/06 05:56:47;;;;;;;6.13;3.90;;;;;;;11.04;86.58;99800.94;5132565;27;20198;-51
2023/01/06 05:59:14;;;;;;;4.90;3.07;;;;;;;11.08;86.73;99806.88;5132691;27;20190;-50
2023/01/06 06:01:41;;;;;;;4.53;3.23;;;;;;;11.04;86.78;99810.47;5132552;27;20620;-50
2023/01/06 06:04:08;;;;;;;3.10;2.90;;;;;;;11.06;86.93;99803.50;5131696;27;20609;-51
2023/01/06 06:06:35;;;;;;;4.57;3.40;;;;;;;10.99;86.80;99799.34;5132284;27;20661;-50
2023/01/06 06:09:05;;;;;;;20.73;4.30;;;;;;;11.06;86.98;99813.88;5132245;27;20190;-51
2023/01/06 06:11:32;;;;;;;10.70;4.83;;;;;;;11.03;86.96;99824.34;5132266;27;20190;-51
2023/01/06 06:14:00;;;;;;;4.83;3.67;;;;;;;11.01;87.05;99829.56;5132239;27;20200;-50
2023/01/06 06:16:28;;;;;;;4.63;4.03;;;;;;;11.01;86.87;99821.78;5132177;27;20573;-50
2023/01/06 06:18:56;;;;;;;4.27;3.50;;;;;;;10.99;86.28;99818.38;5132532;27;20194;-51
2023/01/06 06:21:25;;;;;;;8.43;4.60;;;;;;;11.12;87.12;99827.56;5131766;27;20214;-51
2023/01/06 06:23:53;;;;;;;4.90;3.93;;;;;;;11.16;86.17;99831.78;5132049;27;20284;-52
2023/01/06 06:26:20;;;;;;;4.73;4.10;;;;;;;11.20;86.57;99842.94;5131999;27;20194;-51
2023/01/06 06:28:47;;;;;;;8.23;3.23;;;;;;;11.24;85.25;99828.97;5132109;27;20194;-51
2023/01/06 06:31:19;;;;;;;7.43;3.47;;;;;;;11.37;84.23;99838.16;5131842;27;20189;-51
2023/01/06 06:33:46;;;;;;;5.53;4.27;;;;;;;11.41;83.99;99847.56;5131569;27;20197;-51
2023/01/06 06:36:14;;;;;;;4.73;3.60;;;;;;;11.51;82.68;99843.00;5131816;27;20194;-50
2023/01/06 06:38:41;;;;;;;8.27;3.30;;;;;;;11.56;82.74;99846.31;5131621;27;20296;-52
2023/01/06 06:41:08;;;;;;;3.67;3.40;;;;;;;11.62;82.01;99846.97;5122262;27;20252;-51
2023/01/06 06:43:35;;;;;;;5.93;3.00;;;;;;;11.59;82.26;99835.81;5110436;28;20261;-59
2023/01/06 06:46:02;;;;;;;4.97;2.97;;;;;;;11.68;81.64;99850.31;5109914;28;20225;-59
2023/01/06 06:48:31;;;;;;;3.70;3.03;;;;;;;11.75;80.70;99847.50;5110284;28;20233;-59
2023/01/06 06:50:59;;;;;;;3.43;3.13;;;;;;;11.78;80.02;99868.25;5109979;28;20305;-58
2023/01/06 06:53:26;;;;;;;5.30;3.10;;;;;;;11.78;80.13;99854.38;5109819;28;20748;-59
2023/01/06 06:55:53;;;;;;;2.93;2.73;;;;;;;11.83;79.91;99870.72;5116337;27;20297;-59
2023/01/06 06:58:20;;;;;;;4.07;2.73;;;;;;;11.84;79.78;99864.63;5129714;27;20225;-59
2023/01/06 07:00:47;;;;;;;5.00;3.10;;;;;;;11.82;79.75;99874.22;5128355;27;20216;-59
2023/01/06 07:03:14;;;;;;;7.87;3.43;;;;;;;11.82;79.48;99869.03;5127660;27;20194;-59
2023/01/06 07:05:44;;;;;;;4.53;2.83;;;;;;;11.91;78.41;99869.59;5129217;27;20581;-59
2023/01/06 07:08:11;;;;;;;4.50;2.60;;;;;;;11.90;78.54;99877.44;5129736;27;20645;-61
2023/01/06 07:10:39;;;;;;;4.93;3.10;;;;;;;11.93;78.08;99879.97;5126947;27;20669;-60
2023/01/06 07:13:06;;;;;;;7.83;3.07;;;;;;;11.98;77.81;99876.31;5129617;27;20200;-59
2023/01/06 07:15:33;;;;;;;3.40;3.10;;;;;;;11.97;78.25;99873.75;5129397;27;20275;-59
2023/01/06 07:18:01;;;;;;;2.70;2.47;;;;;;;11.99;77.98;99866.78;5129758;27;20728;-59
2023/01/06 07:20:28;;;;;;;4.63;2.97;;;;;;;12.10;77.71;99863.84;5129645;27;20197;-58
2023/01/06 07:22:56;;;;;;;4.07;2.80;;;;;;;12.11;77.63;99866.41;5129547;27;20216;-60
2023/01/06 07:25:24;;;;;;;6.53;3.20;;;;;;;12.17;77.19;99865.41;5126904;27;20194;-52
2023/01/06 07:27:54;;;;;;;11.50;3.23;;;;;;;12.12;77.63;99855.13;5129524;27;20200;-50
2023/01/06 07:30:22;;;;;;;5.20;2.43;;;;;;;12.18;77.56;99857.56;5127065;27;20197;-51
2023/01/06 07:32:49;;;;;;;12.00;3.47;;;;;;;12.21;77.20;99852.25;5129519;27;20182;-59
2023/01/06 07:35:17;;;;;;;3.40;3.10;;;;;;;12.20;77.46;99854.88;5129093;27;20204;-52
2023/01/06 07:37:44;;;;;;;6.97;2.70;;;;;;;12.20;76.93;99847.94;5129779;27;20208;-52
2023/01/06 07:40:13;;;;;;;10.53;3.80;;;;;;;12.28;77.20;99858.97;5130176;28;20593;-51
2023/01/06 07:42:40;;;;;;;5.00;2.83;;;;;;;12.36;76.78;99870.00;5130555;28;20456;-50
2023/01/06 07:45:08;;;;;;;2.83;2.50;;;;;;;12.38;77.03;99869.09;5130507;28;20208;-50
2023/01/06 07:47:35;;;;;;;7.57;2.87;;;;;;;12.37;76.70;99857.84;5131081;28;20194;-50
2023/01/06 07:50:02;;;;;;;2.87;2.53;;;;;;;12.42;76.09;99873.31;5129818;28;20202;-52
2023/01/06 07:52:30;;;;;;;2.70;2.50;;;;;;;12.42;76.07;99868.94;5120510;28;20226;-51
2023/01/06 07:54:58;;;;;;;2.97;2.77;;;;;;;12.49;76.16;99880.91;5126135;28;20229;-51
2023/01/06 07:57:26;;;;;;;2.70;2.50;;;;;;;12.51;76.19;99878.25;5128396;28;20275;-52
2023/01/06 07:59:53;;;;;;;4.47;3.03;;;;;;;12.53;76.14;99892.03;5128544;28;20705;-51
2023/01/06 08:02:20;;;;;;;3.33;3.00;;;;;;;12.55;76.11;99887.66;5128533;28;20576;-49
2023/01/06 08:04:47;;;;;;;35.13;28.57;;;;;;;12.61;76.42;99898.75;5129362;28;20220;-50
2023/01/06 08:07:15;;;;;;;11.57;4.90;;;;;;;12.68;75.54;99902.84;5128713;28;20218;-49
2023/01/06 08:09:42;;;;;;;3.83;3.30;;;;;;;12.70;75.10;99892.41;5129902;28;20214;-58
2023/01/06 08:12:09;;;;;;;7.53;5.60;;;;;;;12.72;75.15;99914.03;5128766;28;20285;-57
2023/01/06 08:14:37;;;;;;;12.20;5.60;;;;;;;12.72;74.97;99917.50;5130199;28;20201;-56
2023/01/06 08:17:04;;;;;;;6.90;3.17;;;;;;;12.78;73.87;99926.00;5129913;28;20194;-57
2023/01/06 08:19:35;;;;;;;5.50;2.47;;;;;;;12.78;73.53;99928.59;5112551;27;20230;-52
2023/01/06 08:22:02;;;;;;;4.60;3.40;;;;;;;12.91;72.41;99928.19;5120971;28;20501;-49
2023/01/06 08:24:29;;;;;;;17.70;7.13;;;;;;;12.91;72.09;99946.41;5129069;28;20212;-49
2023/01/06 08:26:56;;;;;;;5.73;2.53;;;;;;;12.98;70.96;99955.75;5127097;27;20205;-50
2023/01/06 08:29:23;;;;;;;11.03;2.73;;;;;;;13.09;70.64;99961.47;5131982;27;20654;-50
2023/01/06 08:31:51;;;;;;;17.53;8.27;;;;;;;13.13;70.09;99956.16;5133109;27;20190;-49
2023/01/06 08:34:18;;;;;;;8.20;3.37;;;;;;;13.19;69.86;99963.84;5132555;27;20197;-49
2023/01/06 08:36:46;;;;;;;18.40;9.43;;;;;;;13.33;68.63;99967.66;5132921;27;20194;-48
2023/01/06 08:39:14;;;;;;;10.20;6.43;;;;;;;13.39;68.68;99964.03;5131485;27;20194;-58
2023/01/06 08:41:41;;;;;;;5.10;4.10;;;;;;;13.37;67.97;99960.59;5130147;27;20221;-57
2023/01/06 08:44:08;;;;;;;3.37;2.90;;;;;;;13.40;67.44;99977.03;5131457;27;20212;-58
2023/01/06 08:46:35;;;;;;;5.13;4.30;;;;;;;13.41;67.78;99959.63;5129399;27;20190;-58
2023/01/06 08:49:04;;;;;;;6.23;4.93;;;;;;;13.42;68.11;99969.16;5131336;27;20201;-57
2023/01/06 08:51:31;;;;;;;10.97;3.43;;;;;;;13.46;67.75;99965.50;5131320;27;20196;-58
2023/01/06 08:53:58;;;;;;;6.43;2.87;;;;;;;13.47;67.78;99961.16;5131573;27;20666;-58
2023/01/06 08:56:28;;;;;;;3.03;2.80;;;;;;;13.49;67.48;99955.00;5131640;27;20581;-57
2023/01/06 08:58:58;;;;;;;11.07;2.63;;;;;;;13.57;67.76;99957.31;5129047;27;20284;-57
2023/01/06 09:01:28;;;;;;;4.00;2.30;;;;;;;13.61;68.22;99945.91;5132087;27;20198;-57
2023/01/06 09:03:55;;;;;;;6.17;3.90;;;;;;;13.61;68.51;99951.13;5129113;27;20574;-58
2023/01/06 09:06:23;;;;;;;9.70;3.53;;;;;;;13.62;67.68;99937.16;5131174;27;20200;-57
2023/01/06 09:08:50;;;;;;;8.50;2.80;;;;;;;13.58;68.09;99930.34;5130938;27;20559;-57
2023/01/06 09:11:17;;;;;;;11.77;2.80;;;;;;;13.58;68.11;99925.13;5130561;27;20729;-58
2023/01/06 09:13:45;;;;;;;7.97;2.23;;;;;;;13.64;67.80;99919.72;5130922;27;20574;-58
2023/01/06 09:16:13;;;;;;;4.00;2.47;;;;;;;13.59;67.86;99914.66;5129615;27;20190;-56
2023/01/06 09:18:46;;;;;;;4.43;2.20;;;;;;;13.57;67.69;99911.25;5130541;27;20186;-57
2023/01/06 09:21:13;;;;;;;5.53;2.13;;;;;;;13.56;67.72;99895.63;5130411;27;20194;-58
2023/01/06 09:23:41;;;;;;;5.73;3.53;;;;;;;13.74;66.85;99908.91;5130502;27;20214;-58
2023/01/06 09:26:08;;;;;;;5.20;2.90;;;;;;;13.78;66.57;99902.66;5130365;27;20662;-57
2023/01/06 09:28:35;;;;;;;13.50;3.03;;;;;;;13.86;67.19;99898.94;5130453;27;20200;-58
2023/01/06 09:31:02;;;;;;;8.63;3.33;;;;;;;13.92;67.27;99904.78;5130087;27;20193;-58
2023/01/06 09:33:29;;;;;;;8.20;3.07;;;;;;;13.94;66.31;99886.47;5131200;27;20258;-59
2023/01/06 09:35:56;;;;;;;12.57;3.00;;;;;;;13.98;66.02;99877.63;5129217;27;20197;-58
2023/01/06 09:38:23;;;;;;;3.57;2.00;;;;;;;14.00;65.70;99894.03;5131378;27;20204;-59
2023/01/06 09:41:04;;;;;;;3.37;1.90;;;;;;;13.95;65.35;99899.44;5131531;27;20226;-58
2023/01/06 09:43:44;;;;;;;6.60;2.23;;;;;;;13.98;65.55;99891.53;5131371;27;20618;-58
2023/01/06 09:46:15;;;;;;;2.73;2.07;;;;;;;14.04;64.88;99885.22;5131018;27;20186;-58
2023/01/06 09:48:52;;;;;;;3.97;1.93;;;;;;;14.05;64.10;99874.72;5131355;27;20190;-58
2023/01/06 09:51:23;;;;;;;1.80;1.70;;;;;;;14.08;64.06;99864.16;5128849;27;20198;-58
2023/01/06 09:53:54;;;;;;;10.47;2.10;;;;;;;14.11;63.50;99869.25;5131064;27;20191;-58
2023/01/06 09:56:24;;;;;;;3.53;1.93;;;;;;;14.14;63.70;99850.88;5130553;27;20197;-58
2023/01/06 09:58:57;;;;;;;7.03;2.47;;;;;;;14.17;62.64;99855.13;5130939;27;20190;-58
2023/01/06 10:01:31;;;;;;;13.13;3.70;;;;;;;14.16;62.34;99863.88;5131117;27;20657;-59
2023/01/06 10:03:59;;;;;;;6.10;2.33;;;;;;;14.20;62.27;99851.56;5128612;27;20700;-58
2023/01/06 10:06:32;;;;;;;9.00;3.13;;;;;;;14.16;63.72;99851.66;5130970;27;20604;-59
2023/01/06 10:09:09;;;;;;;8.10;2.77;;;;;;;14.16;63.66;99845.59;5130726;27;20190;-58
2023/01/06 10:11:57;;;;;;;9.33;3.20;;;;;;;14.17;63.36;99852.53;5128148;27;20289;-58
2023/01/06 10:14:37;;;;;;;12.87;2.63;;;;;;;14.22;62.83;99858.41;5129311;27;20193;-49
2023/01/06 10:17:25;;;;;;;5.77;2.00;;;;;;;14.27;62.41;99851.25;5128447;27;20194;-58
2023/01/06 10:20:04;;;;;;;5.27;2.27;;;;;;;14.27;61.98;99846.03;5130349;27;20190;-57
2023/01/06 10:22:39;;;;;;;3.50;1.87;;;;;;;14.38;62.34;99866.50;5129560;27;20224;-58
2023/01/06 10:25:14;;;;;;;2.20;1.93;;;;;;;14.34;61.83;99857.06;5130339;27;20201;-57
2023/01/06 10:27:50;;;;;;;7.33;2.33;;;;;;;14.45;61.65;99847.94;5128858;27;20570;-57
2023/01/06 10:30:25;;;;;;;8.20;2.23;;;;;;;14.40;61.26;99844.69;5128077;27;20193;-58
2023/01/06 10:32:53;;;;;;;3.30;2.10;;;;;;;14.43;61.23;99862.00;5130882;27;20580;-60
2023/01/06 10:35:22;;;;;;;6.40;2.13;;;;;;;14.37;61.39;99851.75;5130372;27;20204;-58
2023/01/06 10:37:51;;;;;;;4.10;1.97;;;;;;;14.44;60.80;99861.94;5130497;27;20237;-57
2023/01/06 10:40:21;;;;;;;2.63;1.67;;;;;;;14.46;60.99;99854.88;5127569;27;20201;-57
2023/01/06 10:42:58;;;;;;;3.37;2.37;;;;;;;14.44;60.93;99861.94;5130189;27;20612;-56
2023/01/06 10:45:30;;;;;;;8.00;2.17;;;;;;;14.44;60.72;99861.09;5128034;27;20627;-57
2023/01/06 10:47:57;;;;;;;2.80;2.20;;;;;;;14.48;60.92;99865.25;5126803;27;20196;-57
2023/01/06 10:50:25;;;;;;;2.67;2.47;;;;;;;14.49;61.84;99853.91;5129404;27;20559;-57
2023/01/06 10:52:52;;;;;;;5.23;1.80;;;;;;;14.53;61.55;99850.28;5129322;27;20194;-57
2023/01/06 10:55:35;;;;;;;4.63;1.83;;;;;;;14.62;60.85;99859.50;5129780;27;20194;-57
2023/01/06 10:58:13;;;;;;;8.77;2.70;;;;;;;14.57;60.76;99851.00;5127383;27;20182;-57
2023/01/06 11:00:54;;;;;;;3.57;2.20;;;;;;;14.52;61.21;99830.28;5127690;27;20199;-57
2023/01/06 11:03:21;;;;;;;2.10;1.97;;;;;;;14.59;60.95;99830.88;5127681;27;20210;-58
2023/01/06 11:06:00;;;;;;;3.30;2.27;;;;;;;14.40;61.16;99807.28;5129846;27;20200;-58
2023/01/06 11:08:27;;;;;;;5.67;1.97;;;;;;;14.55;60.86;99827.56;5128688;27;20603;-59
2023/01/06 11:10:56;;;;;;;5.93;2.00;;;;;;;14.55;61.05;99816.25;5129731;27;20190;-58
2023/01/06 11:13:28;;;;;;;2.23;1.90;;;;;;;14.61;60.95;99823.84;5129608;27;20254;-58
2023/01/06 11:15:56;;;;;;;2.93;1.97;;;;;;;14.57;60.31;99809.19;5130222;27;20673;-58
2023/01/06 11:18:26;;;;;;;5.90;1.70;;;;;;;14.61;60.58;99813.38;5129616;27;20190;-50
2023/01/06 11:21:10;;;;;;;2.60;2.17;;;;;;;14.58;60.97;99811.75;5128858;27;20186;-50
2023/01/06 11:23:39;;;;;;;8.57;3.80;;;;;;;14.64;61.35;99816.75;5128764;27;20214;-58
2023/01/06 11:26:18;;;;;;;4.47;1.87;;;;;;;14.65;60.75;99807.13;5129043;27;20251;-58
2023/01/06 11:28:47;;;;;;;1.87;1.77;;;;;;;14.65;60.77;99813.22;5127678;27;20546;-58
2023/01/06 11:31:21;;;;;;;5.47;2.10;;;;;;;14.68;60.45;99801.75;5129293;27;20574;-50
2023/01/06 11:33:51;;;;;;;3.90;1.60;;;;;;;14.67;59.59;99802.72;5129930;27;20650;-49
2023/01/06 11:36:21;;;;;;;1.50;1.47;;;;;;;14.67;59.72;99794.88;5126775;27;20190;-49
2023/01/06 11:38:53;;;;;;;2.33;1.80;;;;;;;14.63;59.74;99799.38;5129544;27;20725;-49
2023/01/06 11:41:25;;;;;;;4.13;2.47;;;;;;;14.66;60.30;99799.25;5126854;28;20614;-50
2023/01/06 11:43:56;;;;;;;5.43;2.40;;;;;;;14.60;60.17;99804.69;5129884;28;20214;-50
2023/01/06 11:46:25;;;;;;;5.57;1.73;;;;;;;14.65;60.08;99802.75;5128894;28;20194;-50
2023/01/06 11:49:00;;;;;;;2.93;1.60;;;;;;;14.71;59.74;99793.81;5129063;28;20641;-50
2023/01/06 11:51:33;;;;;;;2.73;2.10;;;;;;;14.73;59.88;99789.38;5128998;28;20194;-50